Terminal Aerodrome Forecast
Issued by NWS

Home | Current Version | Previous Version | Graphics & Text | Print | Product List | Glossary On
Versions: 1 2 3 4 5 6 7 8 9 10 11 12 13 14 15
000
FTUS43 KOAX 201100
TAFCDR
TAF
KCDR 201136Z 2012/2112 30005KT P6SM SKC
     FM201700 34010G19KT P6SM FEW120
     FM210200 VRB04KT P6SM SCT120=

USA.gov is the U.S. government's official web portal to all federal, state and local government web resources and services.